Coxs Creek, Kentucky
Current Conditions -  °F | °C
As of 2:56 AM on Friday 28 Nov 2014 (Local Time) from KSDF Reporting Station
Few Clouds Few Clouds  
Wind Chill: 19°   Ceiling: Unl
Heat Index: 25°   Visibility: 10mi
Dew Point: 19°   Wind: 5mph
Humidity: 78%   Direction: 230°SW
Pressure: 30.42"   Gusts: NA
Location:  37.92°N, 85.5°W
Report Text: KSDF 280756Z 23004KT 10SM FEW100 M04/M07 A3042 RMK AO2 SLP307 T10391072
Loading
Personal Weather Stations






























Interactive Weather Map New forecast layout! Learn more

10-Day Weather Forecast

Advertisements
Track Severe Weather on mobile